Time,TemperatureF,DewpointF,PressureIn,WindDirection,WindDirectionDegrees,WindSpeedMPH,WindSpeedGustMPH,Humidity,HourlyPrecipIn,Conditions,Clouds,dailyrainin,SoftwareType,DateUTC
2013-08-01 00:02:00,61.2,59.2,29.86,West,279,0.0,1.0,93,0.00,,---,0.35,VWS V14.00,2013-08-01 05:02:00,
2013-08-01 00:07:00,61.1,59.4,29.86,West,279,0.0,0.0,94,0.00,,---,0.00,VWS V14.00,2013-08-01 05:07:00,
2013-08-01 00:12:00,61.1,59.1,29.86,North,0,0.0,0.0,93,0.00,,---,0.00,VWS V14.00,2013-08-01 05:12:00,
2013-08-01 00:17:00,61.0,59.3,29.86,West,265,0.0,2.0,94,0.00,,---,0.00,VWS V14.00,2013-08-01 05:17:00,
2013-08-01 00:22:00,61.1,59.4,29.86,SW,232,1.0,3.0,94,0.00,,---,0.00,VWS V14.00,2013-08-01 05:22:00,
2013-08-01 00:27:00,61.1,59.1,29.86,West,260,1.0,3.0,93,0.00,,---,0.00,VWS V14.00,2013-08-01 05:27:00,
2013-08-01 00:32:00,61.1,59.1,29.86,West,262,0.0,1.0,93,0.00,,---,0.00,VWS V14.00,2013-08-01 05:32:00,
2013-08-01 00:38:00,61.0,59.0,29.86,WSW,246,0.0,2.0,93,0.00,,---,0.00,VWS V14.00,2013-08-01 05:38:00,
2013-08-01 00:42:00,60.9,58.9,29.86,WSW,243,1.0,2.0,93,0.00,,---,0.00,VWS V14.00,2013-08-01 05:42:00,
2013-08-01 00:48:00,60.9,58.9,29.86,WSW,247,0.0,2.0,93,0.00,,---,0.00,VWS V14.00,2013-08-01 05:48:00,
2013-08-01 00:53:00,60.8,58.8,29.86,WSW,237,2.0,4.0,93,0.00,,---,0.00,VWS V14.00,2013-08-01 05:53:00,
2013-08-01 00:57:00,60.8,58.8,29.86,WSW,238,2.0,3.0,93,0.00,,---,0.00,VWS V14.00,2013-08-01 05:57:00,
2013-08-01 01:02:00,60.9,58.9,29.86,WSW,243,1.0,3.0,93,0.00,,---,0.00,VWS V14.00,2013-08-01 06:02:00,
2013-08-01 01:07:00,60.9,58.9,29.86,WSW,238,0.0,1.0,93,0.00,,---,0.00,VWS V14.00,2013-08-01 06:07:00,
2013-08-01 01:12:00,60.9,58.9,29.86,WSW,242,1.0,3.0,93,0.00,,---,0.00,VWS V14.00,2013-08-01 06:12:00,
2013-08-01 01:17:00,61.0,59.0,29.86,WSW,242,0.0,3.0,93,0.00,,---,0.00,VWS V14.00,2013-08-01 06:17:00,
2013-08-01 01:22:00,61.1,59.1,29.85,WSW,246,3.0,4.0,93,0.00,,---,0.00,VWS V14.00,2013-08-01 06:22:00,
2013-08-01 01:27:00,61.2,59.2,29.85,West,269,0.0,1.0,93,0.00,,---,0.00,VWS V14.00,2013-08-01 06:27:00,
2013-08-01 01:32:00,61.2,59.2,29.85,SW,229,0.0,2.0,93,0.00,,---,0.00,VWS V14.00,2013-08-01 06:32:00,
2013-08-01 01:37:00,61.2,59.2,29.85,WSW,248,0.0,2.0,93,0.00,,---,0.00,VWS V14.00,2013-08-01 06:37:00,
2013-08-01 01:42:00,61.3,59.3,29.85,West,266,0.0,4.0,93,0.00,,---,0.00,VWS V14.00,2013-08-01 06:42:00,
2013-08-01 01:47:00,61.4,59.4,29.85,West,261,1.0,2.0,93,0.00,,---,0.00,VWS V14.00,2013-08-01 06:47:00,
2013-08-01 01:52:00,61.5,59.5,29.84,WSW,249,0.0,3.0,93,0.00,,---,0.00,VWS V14.00,2013-08-01 06:52:00,
2013-08-01 01:57:00,61.5,59.5,29.84,WSW,258,0.0,0.0,93,0.00,,---,0.00,VWS V14.00,2013-08-01 06:57:00,
2013-08-01 02:02:00,61.6,59.6,29.84,WSW,256,0.0,2.0,93,0.00,,---,0.00,VWS V14.00,2013-08-01 07:02:00,
2013-08-01 02:07:00,61.6,59.6,29.84,SW,225,0.0,2.0,93,0.00,,---,0.00,VWS V14.00,2013-08-01 07:07:00,
2013-08-01 02:12:00,61.5,59.5,29.84,West,265,0.0,3.0,93,0.00,,---,0.00,VWS V14.00,2013-08-01 07:12:00,
2013-08-01 02:17:00,61.5,59.5,29.84,West,270,0.0,2.0,93,0.00,,---,0.00,VWS V14.00,2013-08-01 07:17:00,
2013-08-01 02:23:00,61.4,59.4,29.84,West,261,0.0,2.0,93,0.00,,---,0.00,VWS V14.00,2013-08-01 07:23:00,
2013-08-01 02:28:00,61.4,59.4,29.84,WSW,237,0.0,2.0,93,0.00,,---,0.00,VWS V14.00,2013-08-01 07:28:00,
2013-08-01 02:33:00,61.3,59.3,29.84,WNW,292,1.0,2.0,93,0.00,,---,0.00,VWS V14.00,2013-08-01 07:33:00,
2013-08-01 02:38:00,61.3,59.6,29.84,WSW,238,0.0,3.0,94,0.00,,---,0.00,VWS V14.00,2013-08-01 07:38:00,
2013-08-01 02:43:00,61.3,59.6,29.84,WSW,250,1.0,1.0,94,0.00,,---,0.00,VWS V14.00,2013-08-01 07:43:00,
2013-08-01 02:48:00,61.4,59.7,29.84,West,259,1.0,2.0,94,0.00,,---,0.00,VWS V14.00,2013-08-01 07:48:00,
2013-08-01 02:53:00,61.4,59.7,29.84,West,259,0.0,1.0,94,0.00,,---,0.00,VWS V14.00,2013-08-01 07:53:00,
2013-08-01 02:58:00,61.4,59.7,29.84,West,280,0.0,2.0,94,0.00,,---,0.00,VWS V14.00,2013-08-01 07:58:00,
2013-08-01 03:03:00,61.4,59.7,29.84,WNW,303,1.0,1.0,94,0.00,,---,0.00,VWS V14.00,2013-08-01 08:03:00,
2013-08-01 03:08:00,61.4,60.0,29.84,WNW,283,0.0,1.0,95,0.00,,---,0.00,VWS V14.00,2013-08-01 08:08:00,
2013-08-01 03:13:00,61.4,60.0,29.84,West,262,3.0,4.0,95,0.00,,---,0.00,VWS V14.00,2013-08-01 08:13:00,
2013-08-01 03:18:00,61.5,60.1,29.84,WNW,286,3.0,3.0,95,0.00,,---,0.00,VWS V14.00,2013-08-01 08:18:00,
2013-08-01 03:23:00,61.6,60.2,29.84,West,279,2.0,4.0,95,0.00,,---,0.01,VWS V14.00,2013-08-01 08:23:00,
2013-08-01 03:29:00,61.7,60.3,29.84,WSW,254,3.0,6.0,95,0.00,,---,0.01,VWS V14.00,2013-08-01 08:29:00,
2013-08-01 03:34:00,61.7,60.3,29.84,West,281,3.0,3.0,95,0.00,,---,0.01,VWS V14.00,2013-08-01 08:34:00,
2013-08-01 03:40:00,61.7,60.3,29.84,West,267,0.0,4.0,95,0.00,,---,0.01,VWS V14.00,2013-08-01 08:40:00,
2013-08-01 03:45:00,61.8,60.4,29.84,WSW,257,0.0,3.0,95,0.00,,---,0.01,VWS V14.00,2013-08-01 08:45:00,
2013-08-01 03:50:00,61.8,60.4,29.84,WNW,294,5.0,6.0,95,0.00,,---,0.01,VWS V14.00,2013-08-01 08:50:00,
2013-08-01 03:56:00,62.0,60.6,29.84,WNW,300,5.0,8.0,95,0.00,,---,0.01,VWS V14.00,2013-08-01 08:56:00,
2013-08-01 04:01:00,62.0,60.6,29.84,West,281,1.0,6.0,95,0.00,,---,0.01,VWS V14.00,2013-08-01 09:01:00,
2013-08-01 04:07:00,61.9,60.2,29.84,WNW,301,2.0,4.0,94,0.00,,---,0.01,VWS V14.00,2013-08-01 09:07:00,
2013-08-01 04:12:00,61.7,60.3,29.84,West,262,2.0,5.0,95,0.00,,---,0.01,VWS V14.00,2013-08-01 09:12:00,
2013-08-01 04:17:00,61.5,60.1,29.84,WNW,289,0.0,3.0,95,0.00,,---,0.01,VWS V14.00,2013-08-01 09:17:00,
2013-08-01 04:23:00,61.3,59.9,29.84,West,278,2.0,4.0,95,0.00,,---,0.01,VWS V14.00,2013-08-01 09:23:00,
2013-08-01 04:28:00,61.2,59.8,29.84,WNW,293,0.0,4.0,95,0.00,,---,0.01,VWS V14.00,2013-08-01 09:28:00,
2013-08-01 04:33:00,61.2,59.8,29.84,WNW,286,2.0,3.0,95,0.00,,---,0.01,VWS V14.00,2013-08-01 09:33:00,
2013-08-01 04:38:00,61.2,60.0,29.84,WNW,284,0.0,4.0,96,0.00,,---,0.01,VWS V14.00,2013-08-01 09:38:00,
2013-08-01 04:43:00,61.1,60.0,29.84,West,270,2.0,3.0,96,0.00,,---,0.01,VWS V14.00,2013-08-01 09:43:00,
2013-08-01 04:49:00,61.0,59.9,29.84,WNW,286,0.0,5.0,96,0.00,,---,0.01,VWS V14.00,2013-08-01 09:49:00,
2013-08-01 04:54:00,60.9,59.5,29.84,West,273,1.0,3.0,95,0.00,,---,0.01,VWS V14.00,2013-08-01 09:54:00,
2013-08-01 04:59:00,60.9,59.8,29.84,WNW,288,0.0,3.0,96,0.00,,---,0.01,VWS V14.00,2013-08-01 09:59:00,
2013-08-01 05:04:00,60.8,59.7,29.84,WNW,292,1.0,3.0,96,0.00,,---,0.01,VWS V14.00,2013-08-01 10:04:00,
2013-08-01 05:09:00,60.8,59.7,29.84,WNW,290,0.0,0.0,96,0.00,,---,0.01,VWS V14.00,2013-08-01 10:09:00,
2013-08-01 05:14:00,60.7,59.6,29.84,West,268,0.0,3.0,96,0.00,,---,0.01,VWS V14.00,2013-08-01 10:14:00,
2013-08-01 05:19:00,60.7,59.6,29.84,West,271,0.0,1.0,96,0.00,,---,0.01,VWS V14.00,2013-08-01 10:19:00,
2013-08-01 05:24:00,60.5,59.4,29.84,West,275,0.0,0.0,96,0.00,,---,0.01,VWS V14.00,2013-08-01 10:24:00,
2013-08-01 05:29:00,60.5,59.4,29.84,WNW,285,0.0,1.0,96,0.00,,---,0.01,VWS V14.00,2013-08-01 10:29:00,
2013-08-01 05:34:00,60.4,59.3,29.84,WNW,285,0.0,2.0,96,0.00,,---,0.01,VWS V14.00,2013-08-01 10:34:00,
2013-08-01 05:39:00,60.3,59.2,29.84,NW,304,0.0,2.0,96,0.00,,---,0.01,VWS V14.00,2013-08-01 10:39:00,
2013-08-01 05:44:00,60.3,59.2,29.84,WNW,298,0.0,2.0,96,0.00,,---,0.01,VWS V14.00,2013-08-01 10:44:00,
2013-08-01 05:49:00,60.2,59.1,29.84,West,277,0.0,2.0,96,0.00,,---,0.01,VWS V14.00,2013-08-01 10:49:00,
2013-08-01 05:54:00,60.1,59.0,29.84,West,277,0.0,1.0,96,0.00,,---,0.01,VWS V14.00,2013-08-01 10:54:00,
2013-08-01 05:59:00,60.1,59.0,29.84,WNW,300,3.0,3.0,96,0.00,,---,0.01,VWS V14.00,2013-08-01 10:59:00,
2013-08-01 06:04:00,60.2,59.1,29.84,WNW,284,0.0,2.0,96,0.00,,---,0.01,VWS V14.00,2013-08-01 11:04:00,
2013-08-01 06:10:00,60.2,59.1,29.84,WNW,284,0.0,1.0,96,0.00,,---,0.01,VWS V14.00,2013-08-01 11:10:00,
2013-08-01 06:15:00,60.2,59.3,29.84,NW,309,0.0,1.0,97,0.00,,---,0.01,VWS V14.00,2013-08-01 11:15:00,
2013-08-01 06:20:00,60.3,59.5,29.85,NW,311,0.0,2.0,97,0.00,,---,0.01,VWS V14.00,2013-08-01 11:20:00,
2013-08-01 06:27:00,60.4,59.5,29.85,West,281,0.0,1.0,97,0.00,,---,0.01,VWS V14.00,2013-08-01 11:27:00,
2013-08-01 06:32:00,60.4,59.5,29.85,West,273,0.0,2.0,97,0.00,,---,0.01,VWS V14.00,2013-08-01 11:32:00,
2013-08-01 06:37:00,60.5,59.7,29.86,WNW,296,0.0,3.0,97,0.00,,---,0.01,VWS V14.00,2013-08-01 11:37:00,
2013-08-01 06:42:00,60.6,59.8,29.86,WNW,288,2.0,5.0,97,0.00,,---,0.01,VWS V14.00,2013-08-01 11:42:00,
2013-08-01 06:47:00,60.8,60.0,29.86,West,279,1.0,4.0,97,0.00,,---,0.01,VWS V14.00,2013-08-01 11:47:00,
2013-08-01 06:52:00,61.0,59.9,29.85,West,275,1.0,5.0,96,0.00,,---,0.01,VWS V14.00,2013-08-01 11:52:00,
2013-08-01 06:57:00,61.2,60.0,29.85,NW,312,0.0,4.0,96,0.00,,---,0.01,VWS V14.00,2013-08-01 11:57:00,
2013-08-01 07:02:00,61.4,60.2,29.85,NW,310,1.0,4.0,96,0.00,,---,0.01,VWS V14.00,2013-08-01 12:02:00,
2013-08-01 07:07:00,61.7,60.3,29.85,NW,313,2.0,3.0,95,0.00,,---,0.01,VWS V14.00,2013-08-01 12:07:00,
2013-08-01 07:12:00,61.9,60.5,29.85,NW,309,0.0,2.0,95,0.00,,---,0.01,VWS V14.00,2013-08-01 12:12:00,
2013-08-01 07:17:00,62.2,60.8,29.85,NW,310,1.0,5.0,95,0.00,,---,0.01,VWS V14.00,2013-08-01 12:17:00,
2013-08-01 07:22:00,62.5,60.8,29.86,West,271,1.0,4.0,94,0.00,,---,0.01,VWS V14.00,2013-08-01 12:22:00,
2013-08-01 07:28:00,62.7,60.7,29.86,NW,316,1.0,6.0,93,0.00,,---,0.01,VWS V14.00,2013-08-01 12:28:00,
2013-08-01 07:33:00,63.0,61.0,29.86,NW,306,4.0,6.0,93,0.00,,---,0.01,VWS V14.00,2013-08-01 12:33:00,
2013-08-01 07:38:00,63.2,60.8,29.86,NW,317,5.0,7.0,92,0.00,,---,0.01,VWS V14.00,2013-08-01 12:38:00,
2013-08-01 07:43:00,63.4,60.7,29.86,WNW,301,5.0,7.0,91,0.00,,---,0.01,VWS V14.00,2013-08-01 12:43:00,
2013-08-01 07:49:00,63.6,60.9,29.86,West,271,2.0,7.0,91,0.00,,---,0.01,VWS V14.00,2013-08-01 12:49:00,
2013-08-01 07:54:00,64.0,61.3,29.87,NW,314,1.0,4.0,91,0.00,,---,0.01,VWS V14.00,2013-08-01 12:54:00,
2013-08-01 07:59:00,64.3,61.3,29.87,WNW,292,5.0,6.0,90,0.00,,---,0.01,VWS V14.00,2013-08-01 12:59:00,
2013-08-01 08:04:00,64.3,61.0,29.87,WNW,303,5.0,7.0,89,0.00,,---,0.01,VWS V14.00,2013-08-01 13:04:00,
2013-08-01 08:09:00,64.2,60.9,29.86,WNW,296,2.0,7.0,89,0.00,,---,0.01,VWS V14.00,2013-08-01 13:09:00,
2013-08-01 08:15:00,64.5,61.2,29.86,West,275,2.0,9.0,89,0.00,,---,0.01,VWS V14.00,2013-08-01 13:15:00,
2013-08-01 08:20:00,64.7,61.1,29.87,WNW,289,4.0,7.0,88,0.00,,---,0.01,VWS V14.00,2013-08-01 13:20:00,
2013-08-01 08:26:00,65.1,61.5,29.87,WNW,298,4.0,5.0,88,0.00,,---,0.01,VWS V14.00,2013-08-01 13:26:00,
2013-08-01 08:31:00,65.4,61.1,29.87,NNW,345,1.0,5.0,86,0.00,,---,0.01,VWS V14.00,2013-08-01 13:31:00,
2013-08-01 08:37:00,65.8,61.2,29.86,West,274,2.0,6.0,85,0.00,,---,0.01,VWS V14.00,2013-08-01 13:37:00,
2013-08-01 08:42:00,66.0,61.0,29.86,WNW,294,3.0,6.0,84,0.00,,---,0.01,VWS V14.00,2013-08-01 13:42:00,
2013-08-01 08:47:00,66.3,61.3,29.86,WNW,299,3.0,6.0,84,0.00,,---,0.01,VWS V14.00,2013-08-01 13:47:00,
2013-08-01 08:52:00,66.5,61.2,29.87,NW,315,6.0,7.0,83,0.00,,---,0.01,VWS V14.00,2013-08-01 13:52:00,
2013-08-01 08:57:00,66.7,61.0,29.87,NNW,327,3.0,7.0,82,0.00,,---,0.01,VWS V14.00,2013-08-01 13:57:00,
2013-08-01 09:02:00,67.0,61.7,29.87,NW,317,6.0,6.0,83,0.00,,---,0.01,VWS V14.00,2013-08-01 14:02:00,
2013-08-01 09:07:00,67.3,61.6,29.87,NW,322,3.0,8.0,82,0.00,,---,0.01,VWS V14.00,2013-08-01 14:07:00,
2013-08-01 09:12:00,67.4,61.7,29.87,NE,36,0.0,4.0,82,0.00,,---,0.01,VWS V14.00,2013-08-01 14:12:00,
2013-08-01 09:17:00,67.6,61.2,29.87,WNW,283,2.0,6.0,80,0.00,,---,0.01,VWS V14.00,2013-08-01 14:17:00,
2013-08-01 09:23:00,67.8,61.4,29.86,West,279,1.0,3.0,80,0.00,,---,0.01,VWS V14.00,2013-08-01 14:23:00,
2013-08-01 09:28:00,68.0,60.9,29.86,West,279,5.0,8.0,78,0.00,,---,0.01,VWS V14.00,2013-08-01 14:28:00,
2013-08-01 09:33:00,68.2,61.5,29.86,NW,315,0.0,5.0,79,0.00,,---,0.01,VWS V14.00,2013-08-01 14:33:00,
2013-08-01 09:38:00,68.8,60.9,29.87,WNW,291,2.0,6.0,76,0.00,,---,0.01,VWS V14.00,2013-08-01 14:38:00,
2013-08-01 09:43:00,68.9,61.0,29.87,NNW,333,0.0,7.0,76,0.00,,---,0.01,VWS V14.00,2013-08-01 14:43:00,
2013-08-01 09:48:00,69.5,61.2,29.87,North,355,0.0,5.0,75,0.00,,---,0.01,VWS V14.00,2013-08-01 14:48:00,
2013-08-01 09:53:00,70.0,61.7,29.87,NNW,343,2.0,6.0,75,0.00,,---,0.01,VWS V14.00,2013-08-01 14:53:00,
2013-08-01 09:58:00,70.5,60.3,29.87,NW,321,1.0,5.0,70,0.00,,---,0.01,VWS V14.00,2013-08-01 14:58:00,
2013-08-01 10:03:00,71.1,60.0,29.87,West,274,3.0,5.0,68,0.00,,---,0.01,VWS V14.00,2013-08-01 15:03:00,
2013-08-01 10:09:00,71.4,60.3,29.87,WNW,298,2.0,3.0,68,0.00,,---,0.01,VWS V14.00,2013-08-01 15:09:00,
2013-08-01 10:14:00,71.2,60.1,29.87,NNW,331,0.0,6.0,68,0.00,,---,0.01,VWS V14.00,2013-08-01 15:14:00,
2013-08-01 10:19:00,71.6,61.3,29.87,West,279,3.0,9.0,70,0.00,,---,0.01,VWS V14.00,2013-08-01 15:19:00,
2013-08-01 10:24:00,71.6,59.2,29.87,West,279,0.0,6.0,65,0.00,,---,0.01,VWS V14.00,2013-08-01 15:24:00,
2013-08-01 10:30:00,71.8,60.7,29.87,West,265,2.0,5.0,68,0.00,,---,0.01,VWS V14.00,2013-08-01 15:30:00,
2013-08-01 10:35:00,71.7,60.2,29.87,WNW,295,2.0,5.0,67,0.00,,---,0.01,VWS V14.00,2013-08-01 15:35:00,
2013-08-01 10:40:00,71.9,59.5,29.87,NW,308,1.0,6.0,65,0.00,,---,0.01,VWS V14.00,2013-08-01 15:40:00,
2013-08-01 10:45:00,72.2,59.8,29.87,NW,309,9.0,11.0,65,0.00,,---,0.01,VWS V14.00,2013-08-01 15:45:00,
2013-08-01 10:50:00,72.1,59.3,29.87,NW,313,8.0,10.0,64,0.00,,---,0.01,VWS V14.00,2013-08-01 15:50:00,
2013-08-01 10:56:00,72.3,58.6,29.87,West,272,2.0,8.0,62,0.00,,---,0.01,VWS V14.00,2013-08-01 15:56:00,
2013-08-01 11:01:00,72.5,58.8,29.87,WNW,302,8.0,8.0,62,0.00,,---,0.01,VWS V14.00,2013-08-01 16:01:00,
2013-08-01 11:07:00,72.7,58.0,29.87,West,275,5.0,12.0,60,0.00,,---,0.01,VWS V14.00,2013-08-01 16:07:00,
2013-08-01 11:12:00,72.6,58.8,29.87,WNW,284,1.0,6.0,62,0.00,,---,0.01,VWS V14.00,2013-08-01 16:12:00,
2013-08-01 11:17:00,73.1,57.5,29.87,NNW,336,2.0,5.0,58,0.00,,---,0.01,VWS V14.00,2013-08-01 16:17:00,
2013-08-01 11:22:00,72.9,56.3,29.87,WNW,291,7.0,11.0,56,0.00,,---,0.01,VWS V14.00,2013-08-01 16:22:00,
2013-08-01 11:27:00,72.6,57.0,29.87,WNW,294,5.0,13.0,58,0.00,,---,0.01,VWS V14.00,2013-08-01 16:27:00,
2013-08-01 11:32:00,73.0,58.8,29.87,West,274,5.0,6.0,61,0.00,,---,0.01,VWS V14.00,2013-08-01 16:32:00,
2013-08-01 11:37:00,73.5,57.8,29.88,WNW,302,3.0,6.0,58,0.00,,---,0.01,VWS V14.00,2013-08-01 16:37:00,
2013-08-01 11:42:00,73.1,56.5,29.88,WNW,286,4.0,10.0,56,0.00,,---,0.01,VWS V14.00,2013-08-01 16:42:00,
2013-08-01 11:47:00,73.3,55.7,29.88,West,277,5.0,13.0,54,0.00,,---,0.01,VWS V14.00,2013-08-01 16:47:00,
2013-08-01 11:52:00,73.2,55.6,29.87,WNW,285,7.0,13.0,54,0.00,,---,0.01,VWS V14.00,2013-08-01 16:52:00,
2013-08-01 11:57:00,73.3,56.2,29.87,WNW,301,5.0,9.0,55,0.00,,---,0.01,VWS V14.00,2013-08-01 16:57:00,
2013-08-01 12:02:00,73.4,55.8,29.87,NW,325,2.0,6.0,54,0.00,,---,0.01,VWS V14.00,2013-08-01 17:02:00,
2013-08-01 12:07:00,73.8,56.6,29.87,NNE,28,2.0,6.0,55,0.00,,---,0.01,VWS V14.00,2013-08-01 17:07:00,
2013-08-01 12:13:00,74.0,56.3,29.87,WNW,293,2.0,10.0,54,0.00,,---,0.01,VWS V14.00,2013-08-01 17:13:00,
2013-08-01 12:18:00,73.9,56.7,29.87,West,277,6.0,12.0,55,0.00,,---,0.01,VWS V14.00,2013-08-01 17:18:00,
2013-08-01 12:23:00,73.5,55.3,29.87,NE,46,4.0,9.0,53,0.00,,---,0.01,VWS V14.00,2013-08-01 17:23:00,
2013-08-01 12:29:00,73.8,56.6,29.87,North,11,3.0,8.0,55,0.00,,---,0.01,VWS V14.00,2013-08-01 17:29:00,
2013-08-01 12:34:00,74.3,57.1,29.87,North,5,1.0,8.0,55,0.00,,---,0.01,VWS V14.00,2013-08-01 17:34:00,
2013-08-01 12:39:00,74.9,55.6,29.87,West,281,7.0,11.0,51,0.00,,---,0.01,VWS V14.00,2013-08-01 17:39:00,
2013-08-01 12:44:00,74.2,55.5,29.87,WNW,283,1.0,7.0,52,0.00,,---,0.01,VWS V14.00,2013-08-01 17:44:00,
2013-08-01 12:49:00,74.1,55.9,29.87,WNW,298,10.0,10.0,53,0.00,,---,0.01,VWS V14.00,2013-08-01 17:49:00,
2013-08-01 12:54:00,74.3,54.5,29.87,NNW,334,3.0,9.0,50,0.00,,---,0.01,VWS V14.00,2013-08-01 17:54:00,
2013-08-01 12:59:00,74.2,54.4,29.87,West,279,4.0,8.0,50,0.00,,---,0.01,VWS V14.00,2013-08-01 17:59:00,
2013-08-01 13:04:00,74.4,54.0,29.87,WNW,295,3.0,6.0,49,0.00,,---,0.01,VWS V14.00,2013-08-01 18:04:00,
2013-08-01 13:09:00,74.6,53.1,29.87,North,355,3.0,6.0,47,0.00,,---,0.01,VWS V14.00,2013-08-01 18:09:00,
2013-08-01 13:15:00,74.2,54.9,29.87,WNW,292,3.0,7.0,51,0.00,,---,0.01,VWS V14.00,2013-08-01 18:15:00,
2013-08-01 13:20:00,73.9,54.7,29.87,NNW,330,5.0,9.0,51,0.00,,---,0.01,VWS V14.00,2013-08-01 18:20:00,
2013-08-01 13:25:00,73.3,55.2,29.87,North,350,4.0,8.0,53,0.00,,---,0.01,VWS V14.00,2013-08-01 18:25:00,
2013-08-01 13:31:00,74.0,54.7,29.87,NNW,346,0.0,7.0,51,0.00,,---,0.01,VWS V14.00,2013-08-01 18:31:00,
2013-08-01 13:37:00,74.2,53.8,29.87,NW,308,9.0,13.0,49,0.00,,---,0.01,VWS V14.00,2013-08-01 18:37:00,
2013-08-01 13:42:00,74.0,54.2,29.87,WNW,301,7.0,8.0,50,0.00,,---,0.01,VWS V14.00,2013-08-01 18:42:00,
2013-08-01 13:47:00,74.6,54.8,29.87,West,278,10.0,10.0,50,0.00,,---,0.01,VWS V14.00,2013-08-01 18:47:00,
2013-08-01 13:53:00,75.0,54.6,29.87,WNW,290,9.0,9.0,49,0.00,,---,0.01,VWS V14.00,2013-08-01 18:53:00,
2013-08-01 13:58:00,75.1,54.1,29.87,NW,323,3.0,8.0,48,0.00,,---,0.01,VWS V14.00,2013-08-01 18:58:00,
2013-08-01 14:03:00,75.4,54.4,29.87,West,261,3.0,16.0,48,0.00,,---,0.01,VWS V14.00,2013-08-01 19:03:00,
2013-08-01 14:08:00,75.3,54.3,29.87,West,269,11.0,16.0,48,0.00,,---,0.01,VWS V14.00,2013-08-01 19:08:00,
2013-08-01 14:14:00,74.7,54.3,29.87,WNW,295,9.0,11.0,49,0.00,,---,0.01,VWS V14.00,2013-08-01 19:14:00,
2013-08-01 14:19:00,74.5,53.0,29.87,WNW,300,6.0,13.0,47,0.00,,---,0.01,VWS V14.00,2013-08-01 19:19:00,
2013-08-01 14:25:00,75.1,54.7,29.87,NW,321,1.0,6.0,49,0.00,,---,0.01,VWS V14.00,2013-08-01 19:25:00,
2013-08-01 14:30:00,75.5,53.9,29.87,WNW,302,7.0,12.0,47,0.00,,---,0.01,VWS V14.00,2013-08-01 19:30:00,
2013-08-01 14:35:00,75.0,53.4,29.87,NW,309,8.0,11.0,47,0.00,,---,0.01,VWS V14.00,2013-08-01 19:35:00,
2013-08-01 14:40:00,75.1,54.1,29.87,West,281,13.0,13.0,48,0.00,,---,0.01,VWS V14.00,2013-08-01 19:40:00,
2013-08-01 14:45:00,75.1,52.9,29.87,NW,306,6.0,10.0,46,0.00,,---,0.01,VWS V14.00,2013-08-01 19:45:00,
2013-08-01 14:50:00,75.6,53.4,29.87,NNW,348,6.0,10.0,46,0.00,,---,0.01,VWS V14.00,2013-08-01 19:50:00,
2013-08-01 14:55:00,75.9,54.8,29.87,WNW,296,4.0,6.0,48,0.00,,---,0.01,VWS V14.00,2013-08-01 19:55:00,
2013-08-01 15:01:00,75.9,54.2,29.87,WNW,302,3.0,7.0,47,0.00,,---,0.01,VWS V14.00,2013-08-01 20:01:00,
2013-08-01 15:06:00,76.1,54.4,29.87,NNW,336,5.0,10.0,47,0.00,,---,0.01,VWS V14.00,2013-08-01 20:06:00,
2013-08-01 15:11:00,75.7,54.1,29.87,NW,321,3.0,11.0,47,0.00,,---,0.01,VWS V14.00,2013-08-01 20:11:00,
2013-08-01 15:18:00,75.7,54.1,29.87,NW,313,7.0,9.0,47,0.00,,---,0.01,VWS V14.00,2013-08-01 20:18:00,
2013-08-01 15:23:00,75.5,53.9,29.86,NW,320,1.0,6.0,47,0.00,,---,0.01,VWS V14.00,2013-08-01 20:23:00,
2013-08-01 15:28:00,76.0,55.5,29.86,West,275,2.0,7.0,49,0.00,,---,0.01,VWS V14.00,2013-08-01 20:28:00,
2013-08-01 15:33:00,76.3,54.6,29.86,NW,307,3.0,7.0,47,0.00,,---,0.01,VWS V14.00,2013-08-01 20:33:00,
2013-08-01 15:38:00,77.0,54.1,29.86,NW,324,6.0,9.0,45,0.00,,---,0.01,VWS V14.00,2013-08-01 20:38:00,
2013-08-01 15:41:00,76.9,54.0,29.86,NW,320,5.0,9.0,45,0.00,,---,0.01,VWS V14.00,2013-08-01 20:41:00,
2013-08-01 15:46:00,77.3,54.3,29.86,West,281,2.0,8.0,45,0.00,,---,0.01,VWS V14.00,2013-08-01 20:46:00,
2013-08-01 15:51:00,77.0,54.1,29.86,SW,232,4.0,8.0,45,0.00,,---,0.01,VWS V14.00,2013-08-01 20:51:00,
2013-08-01 15:56:00,76.3,54.0,29.86,WNW,301,4.0,9.0,46,0.00,,---,0.01,VWS V14.00,2013-08-01 20:56:00,
2013-08-01 16:01:00,75.4,52.6,29.86,NW,309,8.0,8.0,45,0.00,,---,0.01,VWS V14.00,2013-08-01 21:01:00,
2013-08-01 16:07:00,74.8,52.7,29.86,West,266,4.0,7.0,46,0.00,,---,0.01,VWS V14.00,2013-08-01 21:07:00,
2013-08-01 16:13:00,75.1,53.5,29.86,NW,318,4.0,9.0,47,0.00,,---,0.01,VWS V14.00,2013-08-01 21:13:00,
2013-08-01 16:18:00,74.8,53.2,29.86,WNW,286,6.0,8.0,47,0.00,,---,0.01,VWS V14.00,2013-08-01 21:18:00,
2013-08-01 16:23:00,74.4,53.5,29.85,WNW,292,3.0,5.0,48,0.00,,---,0.01,VWS V14.00,2013-08-01 21:23:00,
2013-08-01 16:28:00,74.1,53.2,29.85,West,265,4.0,7.0,48,0.00,,---,0.01,VWS V14.00,2013-08-01 21:28:00,
2013-08-01 16:33:00,74.8,53.2,29.85,West,266,5.0,7.0,47,0.00,,---,0.01,VWS V14.00,2013-08-01 21:33:00,
2013-08-01 16:38:00,75.4,53.2,29.85,NW,325,5.0,7.0,46,0.00,,---,0.01,VWS V14.00,2013-08-01 21:38:00,
2013-08-01 16:43:00,76.0,53.8,29.85,NNW,327,2.0,3.0,46,0.00,,---,0.01,VWS V14.00,2013-08-01 21:43:00,
2013-08-01 16:48:00,76.5,53.0,29.85,NNW,338,9.0,11.0,44,0.00,,---,0.01,VWS V14.00,2013-08-01 21:48:00,
2013-08-01 16:53:00,76.3,53.4,29.85,NW,317,2.0,6.0,45,0.00,,---,0.01,VWS V14.00,2013-08-01 21:53:00,
2013-08-01 16:58:00,76.6,53.7,29.85,NW,322,3.0,7.0,45,0.00,,---,0.01,VWS V14.00,2013-08-01 21:58:00,
2013-08-01 17:03:00,75.8,52.4,29.85,West,259,6.0,8.0,44,0.00,,---,0.01,VWS V14.00,2013-08-01 22:03:00,
2013-08-01 17:09:00,74.9,52.8,29.84,NW,308,1.0,6.0,46,0.00,,---,0.01,VWS V14.00,2013-08-01 22:09:00,
2013-08-01 17:14:00,75.5,53.3,29.84,West,274,3.0,8.0,46,0.00,,---,0.01,VWS V14.00,2013-08-01 22:14:00,
2013-08-01 17:19:00,76.0,53.2,29.84,WNW,293,2.0,10.0,45,0.00,,---,0.01,VWS V14.00,2013-08-01 22:19:00,
2013-08-01 17:24:00,76.2,53.3,29.84,WNW,290,9.0,14.0,45,0.00,,---,0.01,VWS V14.00,2013-08-01 22:24:00,
2013-08-01 17:29:00,76.0,51.9,29.84,WNW,296,5.0,12.0,43,0.00,,---,0.01,VWS V14.00,2013-08-01 22:29:00,
2013-08-01 17:34:00,75.8,52.4,29.84,WNW,291,2.0,8.0,44,0.00,,---,0.01,VWS V14.00,2013-08-01 22:34:00,
2013-08-01 17:40:00,76.1,53.2,29.84,WNW,298,3.0,9.0,45,0.00,,---,0.01,VWS V14.00,2013-08-01 22:40:00,
2013-08-01 17:45:00,76.2,52.7,29.84,WNW,290,4.0,6.0,44,0.00,,---,0.01,VWS V14.00,2013-08-01 22:45:00,
2013-08-01 17:50:00,76.2,53.9,29.84,North,360,0.0,7.0,46,0.00,,---,0.01,VWS V14.00,2013-08-01 22:50:00,
2013-08-01 17:55:00,76.5,53.6,29.83,NW,315,4.0,6.0,45,0.00,,---,0.01,VWS V14.00,2013-08-01 22:55:00,
2013-08-01 18:00:00,75.8,53.6,29.83,WNW,296,2.0,5.0,46,0.00,,---,0.01,VWS V14.00,2013-08-01 23:00:00,
2013-08-01 18:05:00,75.5,53.9,29.83,West,267,4.0,7.0,47,0.00,,---,0.01,VWS V14.00,2013-08-01 23:05:00,
2013-08-01 18:11:00,75.9,54.2,29.83,West,272,1.0,2.0,47,0.00,,---,0.01,VWS V14.00,2013-08-01 23:11:00,
2013-08-01 18:16:00,76.2,53.3,29.83,West,276,5.0,8.0,45,0.00,,---,0.01,VWS V14.00,2013-08-01 23:16:00,
2013-08-01 18:21:00,76.2,53.3,29.83,WNW,295,2.0,8.0,45,0.00,,---,0.01,VWS V14.00,2013-08-01 23:21:00,
2013-08-01 18:27:00,76.0,53.8,29.83,WNW,299,3.0,5.0,46,0.00,,---,0.01,VWS V14.00,2013-08-01 23:27:00,
2013-08-01 18:32:00,75.9,53.7,29.83,West,275,5.0,7.0,46,0.00,,---,0.01,VWS V14.00,2013-08-01 23:32:00,
2013-08-01 18:37:00,75.7,53.5,29.83,WSW,257,3.0,5.0,46,0.00,,---,0.01,VWS V14.00,2013-08-01 23:37:00,
2013-08-01 18:42:00,75.6,53.4,29.83,NNW,336,0.0,7.0,46,0.00,,---,0.01,VWS V14.00,2013-08-01 23:42:00,
2013-08-01 18:47:00,75.6,54.0,29.83,West,279,0.0,2.0,47,0.00,,---,0.01,VWS V14.00,2013-08-01 23:47:00,
2013-08-01 18:53:00,75.7,54.1,29.83,WSW,240,1.0,5.0,47,0.00,,---,0.01,VWS V14.00,2013-08-01 23:53:00,
2013-08-01 18:58:00,75.3,54.3,29.83,West,270,3.0,5.0,48,0.00,,---,0.01,VWS V14.00,2013-08-01 23:58:00,
2013-08-01 19:03:00,75.0,54.0,29.83,WNW,297,2.0,6.0,48,0.00,,---,0.01,VWS V14.00,2013-08-02 00:03:00,
2013-08-01 19:08:00,74.7,54.3,29.83,West,275,1.0,6.0,49,0.00,,---,0.01,VWS V14.00,2013-08-02 00:08:00,
2013-08-01 19:14:00,74.5,54.1,29.83,SW,224,1.0,4.0,49,0.00,,---,0.01,VWS V14.00,2013-08-02 00:14:00,
2013-08-01 19:19:00,74.4,54.6,29.83,WNW,302,1.0,5.0,50,0.00,,---,0.01,VWS V14.00,2013-08-02 00:19:00,
2013-08-01 19:24:00,74.2,54.4,29.83,West,275,3.0,3.0,50,0.00,,---,0.01,VWS V14.00,2013-08-02 00:24:00,
2013-08-01 19:29:00,73.9,54.1,29.83,West,279,1.0,3.0,50,0.00,,---,0.01,VWS V14.00,2013-08-02 00:29:00,
2013-08-01 19:34:00,73.7,54.5,29.83,WNW,286,1.0,2.0,51,0.00,,---,0.01,VWS V14.00,2013-08-02 00:34:00,
2013-08-01 19:39:00,73.4,54.2,29.83,WNW,286,1.0,2.0,51,0.00,,---,0.01,VWS V14.00,2013-08-02 00:39:00,
2013-08-01 19:44:00,73.2,54.5,29.83,West,277,0.0,0.0,52,0.00,,---,0.01,VWS V14.00,2013-08-02 00:44:00,
2013-08-01 19:49:00,73.0,54.4,29.83,West,269,0.0,3.0,52,0.00,,---,0.01,VWS V14.00,2013-08-02 00:49:00,
2013-08-01 19:54:00,72.5,54.4,29.83,West,271,0.0,2.0,53,0.00,,---,0.01,VWS V14.00,2013-08-02 00:54:00,
2013-08-01 19:59:00,72.2,54.7,29.83,West,269,1.0,2.0,54,0.00,,---,0.01,VWS V14.00,2013-08-02 00:59:00,
2013-08-01 20:04:00,71.7,54.2,29.83,WSW,254,0.0,1.0,54,0.00,,---,0.01,VWS V14.00,2013-08-02 01:04:00,
2013-08-01 20:09:00,71.4,54.4,29.83,WSW,254,0.0,1.0,55,0.00,,---,0.01,VWS V14.00,2013-08-02 01:09:00,
2013-08-01 20:14:00,71.1,54.6,29.83,WSW,252,0.0,2.0,56,0.00,,---,0.01,VWS V14.00,2013-08-02 01:14:00,
2013-08-01 20:19:00,70.9,54.9,29.83,WSW,241,0.0,2.0,57,0.00,,---,0.01,VWS V14.00,2013-08-02 01:19:00,
2013-08-01 20:24:00,70.8,54.8,29.83,WSW,252,0.0,2.0,57,0.00,,---,0.01,VWS V14.00,2013-08-02 01:24:00,
2013-08-01 20:29:00,70.6,55.1,29.83,WSW,237,1.0,3.0,58,0.00,,---,0.01,VWS V14.00,2013-08-02 01:29:00,
2013-08-01 20:34:00,70.4,55.4,29.83,WSW,246,1.0,4.0,59,0.00,,---,0.01,VWS V14.00,2013-08-02 01:34:00,
2013-08-01 20:39:00,70.2,55.2,29.82,SW,221,0.0,1.0,59,0.00,,---,0.01,VWS V14.00,2013-08-02 01:39:00,
2013-08-01 20:44:00,69.9,54.9,29.82,SW,217,3.0,4.0,59,0.00,,---,0.01,VWS V14.00,2013-08-02 01:44:00,
2013-08-01 20:49:00,69.9,54.9,29.82,SW,232,0.0,2.0,59,0.00,,---,0.01,VWS V14.00,2013-08-02 01:49:00,
2013-08-01 20:54:00,69.8,54.8,29.83,SW,229,0.0,1.0,59,0.00,,---,0.01,VWS V14.00,2013-08-02 01:54:00,
2013-08-01 20:59:00,69.6,54.7,29.83,SW,229,0.0,1.0,59,0.00,,---,0.01,VWS V14.00,2013-08-02 01:59:00,
2013-08-01 21:04:00,69.4,55.4,29.83,SW,229,0.0,0.0,61,0.00,,---,0.01,VWS V14.00,2013-08-02 02:04:00,
2013-08-01 21:09:00,69.1,55.1,29.83,SW,235,1.0,3.0,61,0.00,,---,0.01,VWS V14.00,2013-08-02 02:09:00,
2013-08-01 21:14:00,68.9,54.9,29.83,WSW,243,0.0,2.0,61,0.00,,---,0.01,VWS V14.00,2013-08-02 02:14:00,
2013-08-01 21:19:00,68.8,55.3,29.83,SW,234,0.0,0.0,62,0.00,,---,0.01,VWS V14.00,2013-08-02 02:19:00,
2013-08-01 21:24:00,68.6,55.1,29.83,WSW,246,0.0,3.0,62,0.00,,---,0.01,VWS V14.00,2013-08-02 02:24:00,
2013-08-01 21:29:00,68.5,55.4,29.83,WSW,252,4.0,4.0,63,0.00,,---,0.01,VWS V14.00,2013-08-02 02:29:00,
2013-08-01 21:34:00,68.4,55.8,29.83,WSW,237,0.0,1.0,64,0.00,,---,0.01,VWS V14.00,2013-08-02 02:34:00,
2013-08-01 21:39:00,68.0,56.2,29.84,WSW,237,0.0,0.0,66,0.00,,---,0.01,VWS V14.00,2013-08-02 02:39:00,
2013-08-01 21:44:00,67.6,55.8,29.84,WSW,237,0.0,0.0,66,0.00,,---,0.01,VWS V14.00,2013-08-02 02:44:00,
2013-08-01 21:49:00,67.1,56.2,29.84,WSW,237,0.0,0.0,68,0.00,,---,0.01,VWS V14.00,2013-08-02 02:49:00,
2013-08-01 21:54:00,66.8,55.9,29.84,WSW,237,0.0,1.0,68,0.00,,---,0.01,VWS V14.00,2013-08-02 02:54:00,
2013-08-01 21:59:00,66.6,55.7,29.84,WSW,242,0.0,3.0,68,0.00,,---,0.01,VWS V14.00,2013-08-02 02:59:00,
2013-08-01 22:04:00,66.8,55.9,29.84,SW,223,3.0,3.0,68,0.00,,---,0.01,VWS V14.00,2013-08-02 03:04:00,
2013-08-01 22:09:00,67.0,56.1,29.84,SW,227,1.0,3.0,68,0.00,,---,0.01,VWS V14.00,2013-08-02 03:09:00,
2013-08-01 22:14:00,67.1,55.8,29.84,SW,229,3.0,5.0,67,0.00,,---,0.01,VWS V14.00,2013-08-02 03:14:00,
2013-08-01 22:19:00,67.2,55.9,29.84,WSW,241,0.0,2.0,67,0.00,,---,0.01,VWS V14.00,2013-08-02 03:19:00,
2013-08-01 22:24:00,67.2,55.9,29.83,West,261,0.0,1.0,67,0.00,,---,0.01,VWS V14.00,2013-08-02 03:24:00,
2013-08-01 22:29:00,67.1,56.2,29.83,SW,234,1.0,1.0,68,0.00,,---,0.01,VWS V14.00,2013-08-02 03:29:00,
2013-08-01 22:34:00,66.9,56.0,29.83,WSW,250,0.0,2.0,68,0.00,,---,0.01,VWS V14.00,2013-08-02 03:34:00,
2013-08-01 22:39:00,66.8,55.9,29.83,WSW,253,2.0,3.0,68,0.00,,---,0.01,VWS V14.00,2013-08-02 03:39:00,
2013-08-01 22:44:00,66.7,55.8,29.83,SW,227,3.0,3.0,68,0.00,,---,0.01,VWS V14.00,2013-08-02 03:44:00,
2013-08-01 22:49:00,66.6,56.1,29.83,West,261,1.0,3.0,69,0.00,,---,0.01,VWS V14.00,2013-08-02 03:49:00,
2013-08-01 22:54:00,66.5,56.0,29.83,WSW,244,0.0,3.0,69,0.00,,---,0.01,VWS V14.00,2013-08-02 03:54:00,
2013-08-01 22:59:00,66.5,56.0,29.83,WSW,251,0.0,2.0,69,0.00,,---,0.01,VWS V14.00,2013-08-02 03:59:00,
2013-08-01 23:01:00,66.6,56.1,29.83,West,261,0.0,2.0,69,0.00,,---,0.01,VWS V14.00,2013-08-02 04:01:00,
2013-08-01 23:02:00,66.5,56.0,29.83,WSW,253,1.0,3.0,69,0.00,,---,0.01,VWS V14.00,2013-08-02 04:02:00,
2013-08-01 23:07:00,66.6,55.7,29.82,WSW,250,2.0,2.0,68,0.00,,---,0.01,VWS V14.00,2013-08-02 04:07:00,
2013-08-01 23:12:00,66.6,55.7,29.82,WSW,250,0.0,3.0,68,0.00,,---,0.01,VWS V14.00,2013-08-02 04:12:00,
2013-08-01 23:16:00,66.5,55.6,29.82,WSW,250,0.0,1.0,68,0.00,,---,0.01,VWS V14.00,2013-08-02 04:16:00,
2013-08-01 23:21:00,66.4,56.3,29.82,WSW,250,0.0,0.0,70,0.00,,---,0.01,VWS V14.00,2013-08-02 04:21:00,
2013-08-01 23:26:00,66.0,56.3,29.82,WSW,250,0.0,0.0,71,0.00,,---,0.01,VWS V14.00,2013-08-02 04:26:00,
2013-08-01 23:31:00,65.4,56.2,29.82,SW,234,3.0,4.0,72,0.00,,---,0.01,VWS V14.00,2013-08-02 04:31:00,
2013-08-01 23:36:00,65.4,56.5,29.82,WSW,239,0.0,0.0,73,0.00,,---,0.01,VWS V14.00,2013-08-02 04:36:00,
2013-08-01 23:41:00,65.1,56.6,29.82,WSW,239,0.0,0.0,74,0.00,,---,0.01,VWS V14.00,2013-08-02 04:41:00,
2013-08-01 23:46:00,64.7,56.6,29.82,WSW,239,0.0,1.0,75,0.00,,---,0.01,VWS V14.00,2013-08-02 04:46:00,
2013-08-01 23:51:00,64.4,56.3,29.82,WSW,238,1.0,2.0,75,0.00,,---,0.01,VWS V14.00,2013-08-02 04:51:00,
2013-08-01 23:56:00,64.1,56.4,29.82,WSW,238,0.0,1.0,76,0.00,,---,0.01,VWS V14.00,2013-08-02 04:56:00,